Time;durP1;ratioP1;P1;durP2;ratioP2;P2;SDS_P1;SDS_P2;PMS_P1;PMS_P2;Temp;Humidity;BMP_temperature;BMP_pressure;BME280_temperature;BME280_humidity;BME280_pressure;Samples;Min_cycle;Max_cycle;Signal;HPM_P1;HPM_P2
2022/08/02 00:05:39;;;;;;;2.08;1.55;;;;;;;17.75;87.93;97991.72;18503464;32;20064;-59
2022/08/02 00:15:41;;;;;;;2.28;1.40;;;;;;;17.67;88.55;98006.13;18502752;32;20036;-60
2022/08/02 00:25:43;;;;;;;2.25;1.37;;;;;;;17.59;89.73;97997.50;18501178;32;20049;-60
2022/08/02 00:35:56;;;;;;;2.50;1.62;;;;;;;17.44;89.47;97998.69;18501849;32;20080;-60
2022/08/02 00:45:59;;;;;;;1.75;1.37;;;;;;;17.35;90.15;98002.44;18500862;32;20064;-60
2022/08/02 00:56:05;;;;;;;2.25;1.45;;;;;;;17.23;91.10;98005.69;18500486;32;20057;-60
2022/08/02 01:06:07;;;;;;;1.50;1.23;;;;;;;17.13;91.69;98001.25;18499619;32;20053;-60
2022/08/02 01:16:19;;;;;;;1.70;1.20;;;;;;;16.94;91.35;97991.25;18499074;32;20060;-60
2022/08/02 01:26:37;;;;;;;1.25;1.10;;;;;;;16.80;91.56;97976.75;18498368;32;20148;-59
2022/08/02 01:36:48;;;;;;;1.73;1.42;;;;;;;16.66;92.38;97982.19;18483503;32;20052;-59
2022/08/02 01:46:56;;;;;;;2.70;1.37;;;;;;;16.54;93.35;97987.34;18497376;32;20068;-60
2022/08/02 01:57:01;;;;;;;1.87;1.33;;;;;;;16.44;94.09;97980.16;18496768;32;20060;-60
2022/08/02 02:07:06;;;;;;;1.80;1.37;;;;;;;16.36;94.55;97968.03;18496468;32;20072;-60
2022/08/02 02:17:09;;;;;;;2.10;1.20;;;;;;;16.26;94.76;97965.47;18481609;32;20084;-60
2022/08/02 02:27:32;;;;;;;3.12;1.85;;;;;;;16.17;96.16;97954.44;18484140;32;20045;-60
2022/08/02 02:37:40;;;;;;;2.03;1.20;;;;;;;16.17;95.53;97962.62;18495351;32;20104;-60
2022/08/02 02:47:43;;;;;;;1.77;1.25;;;;;;;16.01;95.31;97950.37;18503566;32;20045;-60
2022/08/02 02:57:46;;;;;;;1.73;1.40;;;;;;;15.94;95.71;97948.00;18507278;32;20099;-60
2022/08/02 03:07:48;;;;;;;2.53;1.37;;;;;;;15.87;96.48;97951.13;18507166;32;20068;-60
2022/08/02 03:17:51;;;;;;;3.17;1.50;;;;;;;15.89;97.67;97959.00;18506617;32;20101;-60
2022/08/02 03:27:53;;;;;;;2.58;1.70;;;;;;;15.79;97.80;97961.84;18492006;32;20477;-60
2022/08/02 03:37:56;;;;;;;2.90;1.83;;;;;;;15.76;98.52;97950.44;18505021;32;20096;-60
2022/08/02 03:48:00;;;;;;;1.93;1.43;;;;;;;15.71;98.27;97938.81;18504324;32;20067;-60
2022/08/02 03:58:06;;;;;;;1.92;1.48;;;;;;;15.60;98.43;97929.97;18502678;32;20342;-60
2022/08/02 04:08:08;;;;;;;3.03;1.50;;;;;;;15.54;98.40;97931.97;18501922;32;20050;-59
2022/08/02 04:18:38;;;;;;;3.10;1.48;;;;;;;15.51;98.78;97937.19;18488509;32;20075;-59
2022/08/02 04:28:42;;;;;;;2.08;1.35;;;;;;;15.46;99.02;97929.94;18502221;32;20326;-59
2022/08/02 04:38:44;;;;;;;3.37;1.77;;;;;;;15.53;98.64;97941.25;18501403;32;20402;-59
2022/08/02 04:48:46;;;;;;;2.28;1.67;;;;;;;15.70;98.61;97956.28;18500697;32;20454;-60
2022/08/02 04:58:49;;;;;;;1.75;1.35;;;;;;;15.91;98.86;97952.16;18499768;32;20367;-60
2022/08/02 05:08:51;;;;;;;1.45;1.15;;;;;;;16.17;98.25;97959.91;18499058;32;20075;-60
2022/08/02 05:18:54;;;;;;;2.67;1.40;;;;;;;16.46;97.80;97967.03;18485139;32;20097;-61
2022/08/02 05:28:58;;;;;;;1.25;1.12;;;;;;;16.71;98.54;97973.13;18498723;32;20075;-61
2022/08/02 05:39:00;;;;;;;2.20;1.42;;;;;;;17.02;98.41;97981.53;18483556;32;20437;-60
2022/08/02 05:49:06;;;;;;;3.08;1.30;;;;;;;17.33;97.65;97978.12;18482896;32;20096;-60
2022/08/02 05:59:18;;;;;;;2.00;1.47;;;;;;;17.49;96.99;97981.34;18482281;32;20037;-60
2022/08/02 06:09:22;;;;;;;2.97;1.73;;;;;;;17.77;96.75;97987.56;18482385;32;20508;-60
2022/08/02 06:19:28;;;;;;;1.70;1.30;;;;;;;18.04;96.45;97993.25;18481950;32;20444;-60
2022/08/02 06:29:32;;;;;;;2.43;1.30;;;;;;;18.56;94.62;98001.78;18481256;32;20065;-60
2022/08/02 06:39:45;;;;;;;1.87;1.48;;;;;;;19.28;91.20;97988.03;18482089;32;20049;-60
2022/08/02 06:49:47;;;;;;;1.80;1.30;;;;;;;20.18;87.24;97991.31;18493775;32;20048;-60
2022/08/02 06:59:55;;;;;;;1.42;1.23;;;;;;;20.31;83.66;98007.59;18494503;32;20071;-60
2022/08/02 07:09:59;;;;;;;2.63;1.47;;;;;;;20.14;82.74;98000.22;18494417;32;20440;-60
2022/08/02 07:20:06;;;;;;;3.03;2.08;;;;;;;20.48;82.32;98011.44;18493999;32;20475;-60
2022/08/02 07:30:09;;;;;;;;;;;;;;;20.89;79.17;98026.53;18496346;32;20057;-60
2022/08/02 07:40:13;;;;;;;;;;;;;;;21.32;78.03;98017.28;18504700;32;19963;-61
2022/08/02 07:50:21;;;;;;;2.75;2.00;;;;;;;21.83;76.25;98025.53;18504406;32;19967;-61
2022/08/02 08:00:24;;;;;;;3.40;2.57;;;;;;;22.46;74.36;98015.59;18489151;32;20060;-61
2022/08/02 08:10:27;;;;;;;4.57;1.90;;;;;;;22.96;70.83;98009.00;18489056;32;20065;-60
2022/08/02 08:20:30;;;;;;;4.03;2.40;;;;;;;22.90;69.28;98013.16;18502439;32;20128;-60
2022/08/02 08:30:33;;;;;;;3.55;2.28;;;;;;;23.42;64.54;98024.66;18502099;32;20088;-60
2022/08/02 08:40:37;;;;;;;2.83;2.00;;;;;;;23.94;64.16;98025.84;18500331;32;20081;-60
2022/08/02 08:50:49;;;;;;;2.58;1.83;;;;;;;24.55;61.37;98018.47;18486912;32;20053;-60
2022/08/02 09:00:53;;;;;;;2.57;1.90;;;;;;;24.63;60.55;98015.56;18486223;32;20334;-60
2022/08/02 09:10:56;;;;;;;3.22;2.10;;;;;;;24.74;60.86;97990.94;18472631;32;20092;-60
2022/08/02 09:21:02;;;;;;;2.97;1.95;;;;;;;25.62;58.72;97992.62;18498773;32;20049;-60
2022/08/02 09:31:11;;;;;;;5.90;2.10;;;;;;;24.93;61.34;97995.75;18498396;32;20085;-59
2022/08/02 09:41:34;;;;;;;4.32;2.72;;;;;;;24.94;60.54;97989.06;18483611;32;20059;-60
2022/08/02 09:51:48;;;;;;;;;;;;;;;25.16;60.67;97997.88;18497424;32;20057;-60
2022/08/02 10:01:53;;;;;;;2.30;1.90;;;;;;;25.50;55.57;97988.03;18482588;32;19944;-60
2022/08/02 10:12:06;;;;;;;5.55;2.20;;;;;;;25.91;55.99;97981.34;18496540;32;20052;-61
2022/08/02 10:22:13;;;;;;;2.95;1.45;;;;;;;26.57;57.75;97973.91;18495613;32;20417;-60
2022/08/02 10:32:36;;;;;;;3.72;2.17;;;;;;;26.71;53.58;97971.44;18495498;32;20384;-60
2022/08/02 10:42:49;;;;;;;4.78;2.10;;;;;;;27.21;54.12;97968.63;18494098;32;20050;-60
2022/08/02 10:53:27;;;;;;;3.42;2.45;;;;;;;27.88;50.67;97960.84;18481208;32;20124;-60
2022/08/02 11:03:32;;;;;;;1.90;1.70;;;;;;;27.89;48.00;97956.88;18496162;32;20037;-61
2022/08/02 11:14:03;;;;;;;8.02;1.77;;;;;;;28.08;47.26;97947.59;18492487;32;20053;-61
2022/08/02 11:24:30;;;;;;;2.47;1.80;;;;;;;28.09;49.91;97948.41;18506061;32;20434;-61
2022/08/02 11:34:45;;;;;;;1.80;1.52;;;;;;;28.65;50.44;97941.03;18491123;32;20114;-61
2022/08/02 11:44:49;;;;;;;1.58;1.40;;;;;;;28.98;46.57;97928.94;18504954;32;20048;-61
2022/08/02 11:54:53;;;;;;;2.25;1.80;;;;;;;29.23;45.43;97925.53;18477056;32;20061;-61
2022/08/02 12:05:01;;;;;;;1.80;1.42;;;;;;;29.28;44.77;97921.63;18502769;32;20067;-60
2022/08/02 12:15:05;;;;;;;2.42;1.40;;;;;;;29.81;45.64;97903.56;18487962;32;20095;-60
2022/08/02 12:25:17;;;;;;;2.35;1.60;;;;;;;30.38;44.61;97911.25;18502868;32;20421;-60
2022/08/02 12:35:37;;;;;;;2.80;1.10;;;;;;;30.72;41.30;97908.91;18501945;32;20470;-60
2022/08/02 12:45:51;;;;;;;2.33;1.30;;;;;;;30.78;40.73;97908.50;18501335;32;20045;-60
2022/08/02 12:55:56;;;;;;;1.77;1.50;;;;;;;31.20;42.79;97882.53;18500341;32;20041;-60
2022/08/02 13:06:04;;;;;;;2.12;1.30;;;;;;;31.54;38.54;97879.22;18486914;32;20041;-60
2022/08/02 13:16:30;;;;;;;1.27;1.15;;;;;;;32.07;41.90;97871.78;18484227;32;20441;-60
2022/08/02 13:26:34;;;;;;;1.65;0.88;;;;;;;32.31;35.62;97858.06;18498304;32;20134;-60
2022/08/02 13:36:38;;;;;;;2.67;1.10;;;;;;;32.96;38.20;97860.31;18483909;32;20421;-60
2022/08/02 13:46:41;;;;;;;1.80;1.05;;;;;;;33.59;39.27;97857.19;18483353;32;20049;-61
2022/08/02 13:56:47;;;;;;;2.10;0.88;;;;;;;32.92;34.77;97849.16;18496762;32;20136;-60
2022/08/02 14:06:50;;;;;;;1.60;0.98;;;;;;;33.73;36.12;97856.22;18496301;32;20089;-61
2022/08/02 14:16:55;;;;;;;4.20;0.82;;;;;;;33.61;33.72;97853.97;18482116;32;20049;-61
2022/08/02 14:27:00;;;;;;;1.40;0.60;;;;;;;34.30;34.97;97834.19;18481528;32;20429;-61
2022/08/02 14:37:04;;;;;;;0.93;0.60;;;;;;;34.18;32.31;97837.56;18494412;32;20045;-61
2022/08/02 14:47:07;;;;;;;0.75;0.62;;;;;;;34.62;33.51;97833.62;18508581;32;20125;-61
2022/08/02 14:57:10;;;;;;;2.60;0.88;;;;;;;34.77;32.47;97824.97;18507792;32;20042;-61
2022/08/02 15:07:15;;;;;;;1.12;0.57;;;;;;;33.97;30.86;97814.22;18507146;32;20044;-61
2022/08/02 15:17:18;;;;;;;1.95;0.62;;;;;;;32.84;32.23;97810.44;18479807;32;20102;-61
2022/08/02 15:27:21;;;;;;;0.62;0.35;;;;;;;31.77;36.48;97797.69;18491769;32;20368;-60
2022/08/02 15:37:24;;;;;;;2.08;0.62;;;;;;;31.17;36.94;97782.00;18491555;32;20075;-61
2022/08/02 15:47:32;;;;;;;2.75;0.37;;;;;;;30.82;36.27;97778.09;18492421;32;20094;-60
2022/08/02 15:57:35;;;;;;;0.65;0.32;;;;;;;30.79;33.54;97771.34;18503695;32;20061;-60
2022/08/02 16:07:37;;;;;;;0.90;0.40;;;;;;;30.18;34.90;97765.84;18503355;32;20069;-59
2022/08/02 16:17:42;;;;;;;1.02;0.43;;;;;;;29.67;37.20;97754.63;18488907;32;20351;-60
2022/08/02 16:27:55;;;;;;;0.47;0.37;;;;;;;29.52;36.89;97758.56;18502626;32;20354;-60
2022/08/02 16:38:09;;;;;;;0.88;0.60;;;;;;;29.52;35.16;97753.81;18501889;32;20409;-59
2022/08/02 16:48:12;;;;;;;0.73;0.40;;;;;;;29.63;37.39;97745.47;18487175;32;20045;-60
2022/08/02 16:58:16;;;;;;;1.00;0.68;;;;;;;29.63;36.94;97748.25;18485840;32;20343;-59
2022/08/02 17:08:20;;;;;;;2.37;0.57;;;;;;;29.05;36.01;97744.47;18472987;32;20467;-60
2022/08/02 17:18:23;;;;;;;0.93;0.75;;;;;;;28.64;36.41;97739.94;18499234;32;20049;-60
2022/08/02 17:28:28;;;;;;;0.90;0.60;;;;;;;28.18;38.05;97748.72;18484880;32;20161;-59
2022/08/02 17:38:33;;;;;;;1.58;0.80;;;;;;;28.01;38.56;97744.63;18498185;32;20105;-59
2022/08/02 17:59:23;;;;;;;;;;;;;;;27.32;46.13;97752.25;18496675;32;20083;-59
2022/08/02 18:09:46;;;;;;;1.83;0.60;;;;;;;26.55;48.88;97748.88;18496800;32;20329;-59
2022/08/02 18:19:50;;;;;;;0.88;0.70;;;;;;;25.77;51.97;97752.78;18495265;32;20099;-59
2022/08/02 18:30:03;;;;;;;1.25;0.85;;;;;;;25.19;52.84;97745.37;18495690;32;20357;-59
2022/08/02 18:40:07;;;;;;;1.83;0.82;;;;;;;24.58;54.90;97741.31;18495205;32;20112;-59
2022/08/02 18:50:11;;;;;;;0.60;0.50;;;;;;;24.07;56.77;97744.87;18495051;32;20087;-59
2022/08/02 19:00:16;;;;;;;1.42;0.90;;;;;;;23.57;58.18;97745.19;18494442;32;20044;-59
2022/08/02 19:10:28;;;;;;;2.90;2.00;;;;;;;23.09;60.07;97739.56;18495136;32;20376;-59
2022/08/02 19:20:34;;;;;;;3.78;2.20;;;;;;;22.66;61.05;97744.59;18494327;32;20441;-59
2022/08/02 19:30:41;;;;;;;3.62;2.62;;;;;;;22.26;62.93;97739.81;18489658;32;20429;-59
2022/08/02 19:40:44;;;;;;;2.67;1.62;;;;;;;21.89;64.63;97747.31;18505059;32;20097;-59
2022/08/02 19:50:47;;;;;;;3.10;1.60;;;;;;;21.57;66.10;97752.50;18504871;32;20049;-59
2022/08/02 20:00:53;;;;;;;3.53;2.70;;;;;;;21.26;67.14;97756.53;18504271;32;20037;-59
2022/08/02 20:10:57;;;;;;;3.53;1.85;;;;;;;20.99;68.17;97761.44;18503600;32;20064;-59
2022/08/02 20:21:00;;;;;;;2.87;1.65;;;;;;;20.71;69.08;97761.22;18502661;32;20052;-60
2022/08/02 20:31:04;;;;;;;2.55;1.70;;;;;;;20.43;69.87;97754.25;18488095;32;20086;-60
2022/08/02 20:41:10;;;;;;;2.72;1.85;;;;;;;20.21;70.95;97755.34;18500796;32;20045;-60
2022/08/02 20:51:23;;;;;;;2.83;1.30;;;;;;;19.95;72.30;97753.53;18501106;32;20060;-60
2022/08/02 21:01:35;;;;;;;1.70;1.20;;;;;;;19.72;73.25;97754.88;18486000;32;20443;-60
2022/08/02 21:11:40;;;;;;;1.77;1.25;;;;;;;19.54;73.71;97765.94;18485880;32;20045;-60
2022/08/02 21:21:51;;;;;;;1.30;1.10;;;;;;;19.36;74.51;97754.16;18486363;32;20107;-60
2022/08/02 21:31:54;;;;;;;1.95;1.25;;;;;;;19.17;75.84;97760.03;18484182;32;20071;-60
2022/08/02 21:41:56;;;;;;;1.50;1.02;;;;;;;18.96;76.78;97746.97;18498108;32;20049;-60
2022/08/02 21:52:00;;;;;;;1.40;1.00;;;;;;;18.80;77.49;97749.38;18483225;32;20077;-60
2022/08/02 22:02:02;;;;;;;1.20;1.00;;;;;;;18.66;78.67;97743.22;18496693;32;20361;-60
2022/08/02 22:12:09;;;;;;;2.80;1.15;;;;;;;18.51;79.55;97741.78;18482451;32;20075;-61
2022/08/02 22:22:20;;;;;;;4.20;1.08;;;;;;;18.37;80.20;97741.12;18494753;32;20128;-61
2022/08/02 22:42:52;;;;;;;2.00;1.33;;;;;;;18.12;81.40;97748.97;18495464;32;20441;-61
2022/08/02 22:52:56;;;;;;;3.10;1.45;;;;;;;18.01;81.54;97755.84;18495219;32;20128;-61
2022/08/02 23:02:59;;;;;;;1.48;1.17;;;;;;;17.88;81.63;97763.81;18435288;32;20487;-61
2022/08/02 23:13:04;;;;;;;3.03;1.15;;;;;;;17.78;82.25;97755.88;18441192;32;20045;-61
2022/08/02 23:23:06;;;;;;;2.10;1.30;;;;;;;17.66;82.34;97763.88;18440734;32;20093;-61
2022/08/02 23:33:13;;;;;;;1.87;1.23;;;;;;;17.52;82.40;97759.28;18441762;32;20049;-61
2022/08/02 23:43:16;;;;;;;1.93;1.27;;;;;;;17.43;83.97;97758.44;18439770;32;20438;-61
2022/08/02 23:53:19;;;;;;;1.85;1.35;;;;;;;17.28;84.33;97771.38;18438849;32;20067;-61
